Martha Arendzee — UAIX — position and weather

sailwx.info

Track history (hours):
 
Tides and Currents Weather Stations Pressure Air Temp Water Temp Dewpoint Dewpoint Depression Visibility Wind Speed Wind Dir Waves Ship Positions

Martha Arendzee

Last reported at 2018-Feb-07 06:31 UTC. Time now 2018-Feb-22 15:05 UTC.
Position N 69°09' E 013°55'.
Warning: this ship's position is 15 days out of date.

Length 62 m; draft 4.5 m.

Type: Fishing. MMSI: 273216200.

Date/timePositionNaut miles runAvg speedWind from/ knotsBaromVisibWave heightAir tempDewpointWater temp
2018-Feb-07 06:31N 69°09' E 013°55'0 7.8
2018-Feb-07 06:28N 69°09' E 013°56'4 7.8
2018-Feb-07 06:00N 69°11' E 014°04'4 8.0
2018-Feb-07 05:30N 69°14' E 014°12'4 8.1
2018-Feb-07 05:00N 69°16' E 014°21'4 8.0
2018-Feb-07 04:30N 69°19' E 014°30'4 8.1
2018-Feb-07 04:00N 69°21' E 014°39'4 8.4
2018-Feb-07 03:30N 69°24' E 014°48'4 8.2
2018-Feb-07 03:00N 69°27' E 014°57'4 8.6
2018-Feb-07 02:30N 69°29' E 015°06'5 9.0
2018-Feb-07 01:59N 69°33' E 015°16'4 9.2
2018-Feb-07 01:30N 69°35' E 015°26'5 9.1
2018-Feb-07 00:58N 69°38' E 015°37'4 9.3
2018-Feb-07 00:30N 69°41' E 015°47'4 8.3
2018-Feb-07 00:00N 69°44' E 015°56'4 8.0
2018-Feb-06 23:30N 69°46' E 016°05'16 8.7
2018-Feb-06 21:40N 69°56' E 016°41'2 9.1
2018-Feb-06 21:29N 69°57' E 016°45'4 8.8
2018-Feb-06 21:00N 69°60' E 016°55'4 8.4
2018-Feb-06 20:30N 70°02' E 017°06'4 7.9
2018-Feb-06 20:00N 70°05' E 017°12'4 9.1
2018-Feb-06 19:30N 70°09' E 017°16'5 9.8
2018-Feb-06 19:00N 70°14' E 017°22'510.4
2018-Feb-06 18:30N 70°19' E 017°28'5 9.5
2018-Feb-06 18:00N 70°22' E 017°37'5 9.2
2018-Feb-06 17:30N 70°26' E 017°45'4 8.6
2018-Feb-06 17:00N 70°30' E 017°52'1 1.7
2018-Feb-06 16:30N 70°29' E 017°51'4 2.6
2018-Feb-06 15:00N 70°30' E 018°02'2 4.4
2018-Feb-06 14:30N 70°29' E 017°56'4 4.1
2018-Feb-06 13:30N 70°28' E 017°44'2 4.2
2018-Feb-06 13:00N 70°28' E 017°37'2 4.8
2018-Feb-06 12:30N 70°27' E 017°31'3 5.2
2018-Feb-06 12:00N 70°28' E 017°39'1 2.7
2018-Feb-06 11:30N 70°27' E 017°38'2 3.6
2018-Feb-06 11:00N 70°28' E 017°43'2 3.5
2018-Feb-06 10:29N 70°28' E 017°48'5 3.6
2018-Feb-06 09:00N 70°30' E 018°03'4 3.7
2018-Feb-06 08:00N 70°31' E 018°14'0 0.3
2018-Feb-06 07:00N 70°31' E 018°13'1 2.9
2018-Feb-06 06:30N 70°30' E 018°09'4 4.0
2018-Feb-06 05:29N 70°29' E 017°57'2 4.2
2018-Feb-06 05:00N 70°29' E 017°51'2 4.1
2018-Feb-06 04:30N 70°28' E 017°45'2 4.1
2018-Feb-06 04:00N 70°28' E 017°39'6 3.6
2018-Feb-06 02:23N 70°29' E 017°56'3 5.5
2018-Feb-06 01:49N 70°30' E 018°05'2 5.1
2018-Feb-06 01:27N 70°31' E 018°10'3 5.3
2018-Feb-06 00:56N 70°31' E 018°18'2 5.3
2018-Feb-06 00:30N 70°32' E 018°25'2 5.0
2018-Feb-06 00:00N 70°32' E 018°32'3 5.4
2018-Feb-05 23:30N 70°33' E 018°40'6 6.0
2018-Feb-05 22:30N 70°35' E 018°57'3 6.1
2018-Feb-05 22:00N 70°36' E 019°06'6 6.3
2018-Feb-05 21:00N 70°38' E 019°24'3 6.8
2018-Feb-05 20:29N 70°39' E 019°34'3 7.0
2018-Feb-05 20:00N 70°41' E 019°42'4 7.5
2018-Feb-05 19:30N 70°43' E 019°51'3 6.8
2018-Feb-05 19:00N 70°46' E 019°59'3 5.2
2018-Feb-05 18:30N 70°47' E 020°05'1 2.2
2018-Feb-05 18:00N 70°47' E 020°08'1 1.8
2018-Feb-05 17:30N 70°47' E 020°11'1 1.7
2018-Feb-05 17:00N 70°47' E 020°14'1 1.4
2018-Feb-05 16:00N 70°47' E 020°18'2 1.1
2018-Feb-05 14:30N 70°47' E 020°22'2 1.3
2018-Feb-05 12:30N 70°47' E 020°30'1 1.6
2018-Feb-05 12:00N 70°47' E 020°31'1 1.7
2018-Feb-05 11:30N 70°48' E 020°32'1 0.6
2018-Feb-05 10:00N 70°47' E 020°33'3 5.1
2018-Feb-05 09:29N 70°45' E 020°29'1 2.3
2018-Feb-05 09:00N 70°46' E 020°31'1 1.8
2018-Feb-05 08:30N 70°47' E 020°33'1 1.7
2018-Feb-05 08:01N 70°47' E 020°34'1 1.7
2018-Feb-05 07:31N 70°48' E 020°37'1 1.4
2018-Feb-05 07:01N 70°48' E 020°38'1 1.6
2018-Feb-05 06:29N 70°49' E 020°40'1 1.0
2018-Feb-05 05:31N 70°49' E 020°43'1 1.4
2018-Feb-05 05:01N 70°50' E 020°44'1 1.4
2018-Feb-05 04:30N 70°50' E 020°44'1 1.5
2018-Feb-05 04:00N 70°51' E 020°44'1 1.7
2018-Feb-05 03:30N 70°52' E 020°43'1 1.1
2018-Feb-05 03:01N 70°53' E 020°44'1 2.0
2018-Feb-05 02:30N 70°52' E 020°43'1 2.4
2018-Feb-05 02:00N 70°50' E 020°42'1 2.4
2018-Feb-05 01:30N 70°49' E 020°40'1 2.4
2018-Feb-05 01:00N 70°48' E 020°39'2 2.9
2018-Feb-05 00:29N 70°48' E 020°34'2 3.8
2018-Feb-05 00:00N 70°49' E 020°29'2 3.7
2018-Feb-04 23:30N 70°49' E 020°23'2 3.7
2018-Feb-04 23:00N 70°49' E 020°18'2 3.2
2018-Feb-04 22:29N 70°49' E 020°23'2 3.6
2018-Feb-04 22:00N 70°49' E 020°28'2 3.6
2018-Feb-04 21:30N 70°48' E 020°33'2 4.1
2018-Feb-04 21:00N 70°48' E 020°39'1 1.0
2018-Feb-04 20:00N 70°47' E 020°38'2 3.3
2018-Feb-04 19:31N 70°47' E 020°44'1 1.5
2018-Feb-04 19:00N 70°47' E 020°46'1 2.3
2018-Feb-04 18:29N 70°46' E 020°48'2 3.7
2018-Feb-04 17:59N 70°46' E 020°54'2 3.5
2018-Feb-04 17:30N 70°47' E 020°59'2 1.2
2018-Feb-04 15:29N 70°47' E 021°06'2 3.9
2018-Feb-04 15:00N 70°46' E 021°00'2 3.9
2018-Feb-04 14:30N 70°46' E 020°55'2 4.0
2018-Feb-04 13:59N 70°46' E 020°48'2 4.2
2018-Feb-04 13:30N 70°45' E 020°43'2 3.4
2018-Feb-04 13:00N 70°45' E 020°38'2 5.0
2018-Feb-04 12:30N 70°46' E 020°44'1 1.4
2018-Feb-04 12:01N 70°46' E 020°45'2 3.5
2018-Feb-04 11:30N 70°46' E 020°50'4 2.6
2018-Feb-04 10:01N 70°47' E 021°02'4 3.9
2018-Feb-04 09:00N 70°46' E 020°50'2 4.1
2018-Feb-04 08:30N 70°46' E 020°44'2 4.0
2018-Feb-04 08:00N 70°47' E 020°39'2 3.9
2018-Feb-04 07:31N 70°48' E 020°34'1 2.9
2018-Feb-04 07:01N 70°47' E 020°30'2 3.8
2018-Feb-04 06:30N 70°46' E 020°26'2 3.9
2018-Feb-04 06:01N 70°47' E 020°31'1 1.9
2018-Feb-04 05:30N 70°48' E 020°29'2 3.7
2018-Feb-04 05:00N 70°49' E 020°30'2 3.8
2018-Feb-04 04:30N 70°51' E 020°32'1 2.8
2018-Feb-04 04:00N 70°52' E 020°28'2 4.1
2018-Feb-04 03:31N 70°50' E 020°23'2 4.1
2018-Feb-04 03:01N 70°49' E 020°20'2 3.9
2018-Feb-04 02:30N 70°47' E 020°19'1 2.9
2018-Feb-04 02:00N 70°47' E 020°22'2 3.7
2018-Feb-04 01:30N 70°49' E 020°25'2 3.6
2018-Feb-04 01:01N 70°50' E 020°29'2 3.7
2018-Feb-04 00:30N 70°50' E 020°35'2 4.2
2018-Feb-04 00:00N 70°49' E 020°40'5 9.0
2018-Feb-03 23:30N 70°45' E 020°42'2 3.0
2018-Feb-03 23:00N 70°44' E 020°39'2 4.1
2018-Feb-03 22:31N 70°43' E 020°33'2 4.0
2018-Feb-03 22:01N 70°42' E 020°27'2 3.9
2018-Feb-03 21:30N 70°42' E 020°22'2 3.6
2018-Feb-03 21:00N 70°42' E 020°16'2 4.7
2018-Feb-03 20:31N 70°43' E 020°09'3 6.0
2018-Feb-03 20:00N 70°43' E 020°00'11 6.2
2018-Feb-03 18:11N 70°45' E 019°27'1 3.9
2018-Feb-03 17:55N 70°46' E 019°26'3 2.7
2018-Feb-03 16:56N 70°44' E 019°29'1 1.3
2018-Feb-03 16:00N 70°45' E 019°33'2 4.1
2018-Feb-03 15:30N 70°46' E 019°28'2 3.1
2018-Feb-03 15:00N 70°45' E 019°24'2 4.0
2018-Feb-03 14:30N 70°44' E 019°30'2 3.6
2018-Feb-03 14:00N 70°44' E 019°35'2 3.3
2018-Feb-03 13:31N 70°44' E 019°40'1 2.7
2018-Feb-03 13:00N 70°43' E 019°36'2 3.8
2018-Feb-03 12:30N 70°43' E 019°31'2 3.6
2018-Feb-03 12:00N 70°42' E 019°35'2 3.8
2018-Feb-03 11:31N 70°41' E 019°40'2 3.9
2018-Feb-03 11:00N 70°40' E 019°45'2 4.0
2018-Feb-03 10:30N 70°41' E 019°50'2 4.1
2018-Feb-03 10:01N 70°43' E 019°54'2 4.2
2018-Feb-03 09:30N 70°45' E 019°58'4 7.5
2018-Feb-03 09:00N 70°48' E 020°04'1 1.7
2018-Feb-03 08:31N 70°47' E 020°06'2 3.8
2018-Feb-03 08:00N 70°46' E 020°09'2 1.0
2018-Feb-03 06:31N 70°44' E 020°08'2 3.7
2018-Feb-03 06:00N 70°46' E 020°06'2 3.7
2018-Feb-03 05:31N 70°47' E 020°01'2 3.6
2018-Feb-03 05:01N 70°46' E 019°55'4 3.6
2018-Feb-03 04:01N 70°43' E 019°52'2 3.9
2018-Feb-03 03:30N 70°42' E 019°57'1 0.4
2018-Feb-03 02:00N 70°42' E 019°59'2 3.4
2018-Feb-03 01:30N 70°43' E 019°56'2 3.8
2018-Feb-03 01:00N 70°45' E 019°53'2 3.3
2018-Feb-03 00:30N 70°46' E 019°52'2 3.8
2018-Feb-03 00:01N 70°45' E 019°55'2 3.9
2018-Feb-02 23:30N 70°43' E 019°57'1 1.9
2018-Feb-02 23:00N 70°43' E 019°54'2 3.9
2018-Feb-02 22:31N 70°45' E 019°53'1 2.8
2018-Feb-02 22:00N 70°46' E 019°56'2 3.9
2018-Feb-02 21:30N 70°44' E 019°57'1 2.8
2018-Feb-02 21:00N 70°43' E 019°56'2 4.0
2018-Feb-02 20:31N 70°45' E 019°55'2 4.2
2018-Feb-02 20:00N 70°47' E 019°55'1 1.4
2018-Feb-02 19:00N 70°46' E 019°57'2 3.9
2018-Feb-02 18:30N 70°44' E 019°55'2 3.4
2018-Feb-02 18:01N 70°43' E 019°51'2 3.5
2018-Feb-02 17:31N 70°43' E 019°56'2 3.7
2018-Feb-02 17:00N 70°45' E 019°58'2 3.7
2018-Feb-02 16:30N 70°44' E 019°54'4 3.7
2018-Feb-02 15:30N 70°42' E 019°44'1 1.4
2018-Feb-02 14:31N 70°41' E 019°47'2 3.9
2018-Feb-02 14:00N 70°42' E 019°52'2 3.4
2018-Feb-02 13:28N 70°42' E 019°47'2 4.2
2018-Feb-02 13:00N 70°41' E 019°42'2 3.4
2018-Feb-02 12:25N 70°42' E 019°47'3 2.8
2018-Feb-02 11:22N 70°44' E 019°51'3 2.4
2018-Feb-02 10:11N 70°42' E 019°49'1 3.9
2018-Feb-02 10:00N 70°41' E 019°47'2 3.3
2018-Feb-02 09:30N 70°40' E 019°43'2 3.4
2018-Feb-02 08:59N 70°41' E 019°48'3 0.5
2018-Feb-02 03:51N 70°43' E 019°45'1 3.9
2018-Feb-02 03:29N 70°42' E 019°48'2 4.0
2018-Feb-02 03:00N 70°42' E 019°54'1 0.2
2018-Feb-01 19:14N 70°41' E 019°58'1 2.4
2018-Feb-01 19:00N 70°41' E 019°56'2 1.0
2018-Feb-01 16:48N 70°41' E 020°03'1 3.3
2018-Feb-01 16:30N 70°41' E 020°00'2 3.7
2018-Feb-01 16:00N 70°41' E 019°55'2 3.7
2018-Feb-01 15:30N 70°42' E 019°49'2 3.4
2018-Feb-01 14:59N 70°41' E 019°44'5 3.5
2018-Feb-01 13:30N 70°41' E 019°60'2 3.8
2018-Feb-01 13:00N 70°41' E 020°06'1 0.7
2018-Feb-01 11:00N 70°41' E 020°02'2 3.8
2018-Feb-01 10:29N 70°41' E 019°56'2 3.9
2018-Feb-01 10:00N 70°41' E 019°50'2 3.1
2018-Feb-01 09:30N 70°40' E 019°48'2 3.7
2018-Feb-01 09:00N 70°39' E 019°53'2 4.0
2018-Feb-01 08:30N 70°40' E 019°59'13 2.9
2018-Feb-01 04:07N 70°51' E 020°17'0 3.6
2018-Feb-01 04:00N 70°51' E 020°17'2 1.7
2018-Feb-01 02:48N 70°49' E 020°16'1 4.1
2018-Feb-01 02:30N 70°49' E 020°14'2 3.9
2018-Feb-01 02:00N 70°47' E 020°11'2 3.5
2018-Feb-01 01:30N 70°46' E 020°15'2 3.9
2018-Feb-01 01:00N 70°46' E 020°21'2 3.9
2018-Feb-01 00:30N 70°47' E 020°26'2 4.6
2018-Feb-01 00:01N 70°48' E 020°31'1 1.2
2018-Jan-31 23:00N 70°47' E 020°32'1 1.9
2018-Jan-31 22:30N 70°47' E 020°35'5 3.6
2018-Jan-31 21:00N 70°48' E 020°50'2 3.9
2018-Jan-31 20:31N 70°48' E 020°56'2 3.8
2018-Jan-31 20:00N 70°48' E 021°02'2 3.9
2018-Jan-31 19:29N 70°48' E 021°08'2 3.9
2018-Jan-31 19:00N 70°48' E 021°14'2 3.9
2018-Jan-31 18:30N 70°49' E 021°19'2 4.4
2018-Jan-31 17:59N 70°51' E 021°24'1 1.7
2018-Jan-31 17:30N 70°50' E 021°23'1 2.3
2018-Jan-31 17:00N 70°49' E 021°21'2 3.6
2018-Jan-31 16:30N 70°49' E 021°15'2 3.7
2018-Jan-31 16:00N 70°49' E 021°10'2 3.7
2018-Jan-31 15:30N 70°49' E 021°04'22 0.6
2018-Jan-30 02:20N 71°04' E 021°54'1 4.2
2018-Jan-30 02:00N 71°04' E 021°59'3 6.6
2018-Jan-30 01:30N 71°05' E 022°09'1 1.8
2018-Jan-30 01:00N 71°05' E 022°09'1 0.7
2018-Jan-29 23:06N 71°07' E 022°09'0 3.8
2018-Jan-29 23:00N 71°06' E 022°09'2 3.6
2018-Jan-29 22:28N 71°04' E 022°10'2 3.9
2018-Jan-29 22:00N 71°03' E 022°12'1 2.8
2018-Jan-29 21:30N 71°03' E 022°08'2 3.8
2018-Jan-29 21:00N 71°05' E 022°08'2 3.9
2018-Jan-29 20:30N 71°07' E 022°09'  
Track history (hours):
 
Tides and Currents Weather Stations Pressure Air Temp Water Temp Dewpoint Dewpoint Depression Visibility Wind Speed Wind Dir Waves Ship Positions

Martha Arendzee

Last reported at 2018-Feb-07 06:31 UTC. Time now 2018-Feb-22 15:05 UTC.
Position N 69°09' E 013°55'.
Warning: this ship's position is 15 days out of date.

Length 62 m; draft 4.5 m.

Type: Fishing. MMSI: 273216200.

Date/timePositionNaut miles runAvg speedWind from/ knotsBaromVisibWave heightAir tempDewpointWater temp
2018-Feb-07 06:31N 69°09' E 013°55'0 7.8
2018-Feb-07 06:28N 69°09' E 013°56'4 7.8
2018-Feb-07 06:00N 69°11' E 014°04'4 8.0
2018-Feb-07 05:30N 69°14' E 014°12'4 8.1
2018-Feb-07 05:00N 69°16' E 014°21'4 8.0
2018-Feb-07 04:30N 69°19' E 014°30'4 8.1
2018-Feb-07 04:00N 69°21' E 014°39'4 8.4
2018-Feb-07 03:30N 69°24' E 014°48'4 8.2
2018-Feb-07 03:00N 69°27' E 014°57'4 8.6
2018-Feb-07 02:30N 69°29' E 015°06'5 9.0
2018-Feb-07 01:59N 69°33' E 015°16'4 9.2
2018-Feb-07 01:30N 69°35' E 015°26'5 9.1
2018-Feb-07 00:58N 69°38' E 015°37'4 9.3
2018-Feb-07 00:30N 69°41' E 015°47'4 8.3
2018-Feb-07 00:00N 69°44' E 015°56'4 8.0
2018-Feb-06 23:30N 69°46' E 016°05'16 8.7
2018-Feb-06 21:40N 69°56' E 016°41'2 9.1
2018-Feb-06 21:29N 69°57' E 016°45'4 8.8
2018-Feb-06 21:00N 69°60' E 016°55'4 8.4
2018-Feb-06 20:30N 70°02' E 017°06'4 7.9
2018-Feb-06 20:00N 70°05' E 017°12'4 9.1
2018-Feb-06 19:30N 70°09' E 017°16'5 9.8
2018-Feb-06 19:00N 70°14' E 017°22'510.4
2018-Feb-06 18:30N 70°19' E 017°28'5 9.5
2018-Feb-06 18:00N 70°22' E 017°37'5 9.2
2018-Feb-06 17:30N 70°26' E 017°45'4 8.6
2018-Feb-06 17:00N 70°30' E 017°52'1 1.7
2018-Feb-06 16:30N 70°29' E 017°51'4 2.6
2018-Feb-06 15:00N 70°30' E 018°02'2 4.4
2018-Feb-06 14:30N 70°29' E 017°56'4 4.1
2018-Feb-06 13:30N 70°28' E 017°44'2 4.2
2018-Feb-06 13:00N 70°28' E 017°37'2 4.8
2018-Feb-06 12:30N 70°27' E 017°31'3 5.2
2018-Feb-06 12:00N 70°28' E 017°39'1 2.7
2018-Feb-06 11:30N 70°27' E 017°38'2 3.6
2018-Feb-06 11:00N 70°28' E 017°43'2 3.5
2018-Feb-06 10:29N 70°28' E 017°48'5 3.6
2018-Feb-06 09:00N 70°30' E 018°03'4 3.7
2018-Feb-06 08:00N 70°31' E 018°14'0 0.3
2018-Feb-06 07:00N 70°31' E 018°13'1 2.9
2018-Feb-06 06:30N 70°30' E 018°09'4 4.0
2018-Feb-06 05:29N 70°29' E 017°57'2 4.2
2018-Feb-06 05:00N 70°29' E 017°51'2 4.1
2018-Feb-06 04:30N 70°28' E 017°45'2 4.1
2018-Feb-06 04:00N 70°28' E 017°39'6 3.6
2018-Feb-06 02:23N 70°29' E 017°56'3 5.5
2018-Feb-06 01:49N 70°30' E 018°05'2 5.1
2018-Feb-06 01:27N 70°31' E 018°10'3 5.3
2018-Feb-06 00:56N 70°31' E 018°18'2 5.3
2018-Feb-06 00:30N 70°32' E 018°25'2 5.0
2018-Feb-06 00:00N 70°32' E 018°32'3 5.4
2018-Feb-05 23:30N 70°33' E 018°40'6 6.0
2018-Feb-05 22:30N 70°35' E 018°57'3 6.1
2018-Feb-05 22:00N 70°36' E 019°06'6 6.3
2018-Feb-05 21:00N 70°38' E 019°24'3 6.8
2018-Feb-05 20:29N 70°39' E 019°34'3 7.0
2018-Feb-05 20:00N 70°41' E 019°42'4 7.5
2018-Feb-05 19:30N 70°43' E 019°51'3 6.8
2018-Feb-05 19:00N 70°46' E 019°59'3 5.2
2018-Feb-05 18:30N 70°47' E 020°05'1 2.2
2018-Feb-05 18:00N 70°47' E 020°08'1 1.8
2018-Feb-05 17:30N 70°47' E 020°11'1 1.7
2018-Feb-05 17:00N 70°47' E 020°14'1 1.4
2018-Feb-05 16:00N 70°47' E 020°18'2 1.1
2018-Feb-05 14:30N 70°47' E 020°22'2 1.3
2018-Feb-05 12:30N 70°47' E 020°30'1 1.6
2018-Feb-05 12:00N 70°47' E 020°31'1 1.7
2018-Feb-05 11:30N 70°48' E 020°32'1 0.6
2018-Feb-05 10:00N 70°47' E 020°33'3 5.1
2018-Feb-05 09:29N 70°45' E 020°29'1 2.3
2018-Feb-05 09:00N 70°46' E 020°31'1 1.8
2018-Feb-05 08:30N 70°47' E 020°33'1 1.7
2018-Feb-05 08:01N 70°47' E 020°34'1 1.7
2018-Feb-05 07:31N 70°48' E 020°37'1 1.4
2018-Feb-05 07:01N 70°48' E 020°38'1 1.6
2018-Feb-05 06:29N 70°49' E 020°40'1 1.0
2018-Feb-05 05:31N 70°49' E 020°43'1 1.4
2018-Feb-05 05:01N 70°50' E 020°44'1 1.4
2018-Feb-05 04:30N 70°50' E 020°44'1 1.5
2018-Feb-05 04:00N 70°51' E 020°44'1 1.7
2018-Feb-05 03:30N 70°52' E 020°43'1 1.1
2018-Feb-05 03:01N 70°53' E 020°44'1 2.0
2018-Feb-05 02:30N 70°52' E 020°43'1 2.4
2018-Feb-05 02:00N 70°50' E 020°42'1 2.4
2018-Feb-05 01:30N 70°49' E 020°40'1 2.4
2018-Feb-05 01:00N 70°48' E 020°39'2 2.9
2018-Feb-05 00:29N 70°48' E 020°34'2 3.8
2018-Feb-05 00:00N 70°49' E 020°29'2 3.7
2018-Feb-04 23:30N 70°49' E 020°23'2 3.7
2018-Feb-04 23:00N 70°49' E 020°18'2 3.2
2018-Feb-04 22:29N 70°49' E 020°23'2 3.6
2018-Feb-04 22:00N 70°49' E 020°28'2 3.6
2018-Feb-04 21:30N 70°48' E 020°33'2 4.1
2018-Feb-04 21:00N 70°48' E 020°39'1 1.0
2018-Feb-04 20:00N 70°47' E 020°38'2 3.3
2018-Feb-04 19:31N 70°47' E 020°44'1 1.5
2018-Feb-04 19:00N 70°47' E 020°46'1 2.3
2018-Feb-04 18:29N 70°46' E 020°48'2 3.7
2018-Feb-04 17:59N 70°46' E 020°54'2 3.5
2018-Feb-04 17:30N 70°47' E 020°59'2 1.2
2018-Feb-04 15:29N 70°47' E 021°06'2 3.9
2018-Feb-04 15:00N 70°46' E 021°00'2 3.9
2018-Feb-04 14:30N 70°46' E 020°55'2 4.0
2018-Feb-04 13:59N 70°46' E 020°48'2 4.2
2018-Feb-04 13:30N 70°45' E 020°43'2 3.4
2018-Feb-04 13:00N 70°45' E 020°38'2 5.0
2018-Feb-04 12:30N 70°46' E 020°44'1 1.4
2018-Feb-04 12:01N 70°46' E 020°45'2 3.5
2018-Feb-04 11:30N 70°46' E 020°50'4 2.6
2018-Feb-04 10:01N 70°47' E 021°02'4 3.9
2018-Feb-04 09:00N 70°46' E 020°50'2 4.1
2018-Feb-04 08:30N 70°46' E 020°44'2 4.0
2018-Feb-04 08:00N 70°47' E 020°39'2 3.9
2018-Feb-04 07:31N 70°48' E 020°34'1 2.9
2018-Feb-04 07:01N 70°47' E 020°30'2 3.8
2018-Feb-04 06:30N 70°46' E 020°26'2 3.9
2018-Feb-04 06:01N 70°47' E 020°31'1 1.9
2018-Feb-04 05:30N 70°48' E 020°29'2 3.7
2018-Feb-04 05:00N 70°49' E 020°30'2 3.8
2018-Feb-04 04:30N 70°51' E 020°32'1 2.8
2018-Feb-04 04:00N 70°52' E 020°28'2 4.1
2018-Feb-04 03:31N 70°50' E 020°23'2 4.1
2018-Feb-04 03:01N 70°49' E 020°20'2 3.9
2018-Feb-04 02:30N 70°47' E 020°19'1 2.9
2018-Feb-04 02:00N 70°47' E 020°22'2 3.7
2018-Feb-04 01:30N 70°49' E 020°25'2 3.6
2018-Feb-04 01:01N 70°50' E 020°29'2 3.7
2018-Feb-04 00:30N 70°50' E 020°35'2 4.2
2018-Feb-04 00:00N 70°49' E 020°40'5 9.0
2018-Feb-03 23:30N 70°45' E 020°42'2 3.0
2018-Feb-03 23:00N 70°44' E 020°39'2 4.1
2018-Feb-03 22:31N 70°43' E 020°33'2 4.0
2018-Feb-03 22:01N 70°42' E 020°27'2 3.9
2018-Feb-03 21:30N 70°42' E 020°22'2 3.6
2018-Feb-03 21:00N 70°42' E 020°16'2 4.7
2018-Feb-03 20:31N 70°43' E 020°09'3 6.0
2018-Feb-03 20:00N 70°43' E 020°00'11 6.2
2018-Feb-03 18:11N 70°45' E 019°27'1 3.9
2018-Feb-03 17:55N 70°46' E 019°26'3 2.7
2018-Feb-03 16:56N 70°44' E 019°29'1 1.3
2018-Feb-03 16:00N 70°45' E 019°33'2 4.1
2018-Feb-03 15:30N 70°46' E 019°28'2 3.1
2018-Feb-03 15:00N 70°45' E 019°24'2 4.0
2018-Feb-03 14:30N 70°44' E 019°30'2 3.6
2018-Feb-03 14:00N 70°44' E 019°35'2 3.3
2018-Feb-03 13:31N 70°44' E 019°40'1 2.7
2018-Feb-03 13:00N 70°43' E 019°36'2 3.8
2018-Feb-03 12:30N 70°43' E 019°31'2 3.6
2018-Feb-03 12:00N 70°42' E 019°35'2 3.8
2018-Feb-03 11:31N 70°41' E 019°40'2 3.9
2018-Feb-03 11:00N 70°40' E 019°45'2 4.0
2018-Feb-03 10:30N 70°41' E 019°50'2 4.1
2018-Feb-03 10:01N 70°43' E 019°54'2 4.2
2018-Feb-03 09:30N 70°45' E 019°58'4 7.5
2018-Feb-03 09:00N 70°48' E 020°04'1 1.7
2018-Feb-03 08:31N 70°47' E 020°06'2 3.8
2018-Feb-03 08:00N 70°46' E 020°09'2 1.0
2018-Feb-03 06:31N 70°44' E 020°08'2 3.7
2018-Feb-03 06:00N 70°46' E 020°06'2 3.7
2018-Feb-03 05:31N 70°47' E 020°01'2 3.6
2018-Feb-03 05:01N 70°46' E 019°55'4 3.6
2018-Feb-03 04:01N 70°43' E 019°52'2 3.9
2018-Feb-03 03:30N 70°42' E 019°57'1 0.4
2018-Feb-03 02:00N 70°42' E 019°59'2 3.4
2018-Feb-03 01:30N 70°43' E 019°56'2 3.8
2018-Feb-03 01:00N 70°45' E 019°53'2 3.3
2018-Feb-03 00:30N 70°46' E 019°52'2 3.8
2018-Feb-03 00:01N 70°45' E 019°55'2 3.9
2018-Feb-02 23:30N 70°43' E 019°57'1 1.9
2018-Feb-02 23:00N 70°43' E 019°54'2 3.9
2018-Feb-02 22:31N 70°45' E 019°53'1 2.8
2018-Feb-02 22:00N 70°46' E 019°56'2 3.9
2018-Feb-02 21:30N 70°44' E 019°57'1 2.8
2018-Feb-02 21:00N 70°43' E 019°56'2 4.0
2018-Feb-02 20:31N 70°45' E 019°55'2 4.2
2018-Feb-02 20:00N 70°47' E 019°55'1 1.4
2018-Feb-02 19:00N 70°46' E 019°57'2 3.9
2018-Feb-02 18:30N 70°44' E 019°55'2 3.4
2018-Feb-02 18:01N 70°43' E 019°51'2 3.5
2018-Feb-02 17:31N 70°43' E 019°56'2 3.7
2018-Feb-02 17:00N 70°45' E 019°58'2 3.7
2018-Feb-02 16:30N 70°44' E 019°54'4 3.7
2018-Feb-02 15:30N 70°42' E 019°44'1 1.4
2018-Feb-02 14:31N 70°41' E 019°47'2 3.9
2018-Feb-02 14:00N 70°42' E 019°52'2 3.4
2018-Feb-02 13:28N 70°42' E 019°47'2 4.2
2018-Feb-02 13:00N 70°41' E 019°42'2 3.4
2018-Feb-02 12:25N 70°42' E 019°47'3 2.8
2018-Feb-02 11:22N 70°44' E 019°51'3 2.4
2018-Feb-02 10:11N 70°42' E 019°49'1 3.9
2018-Feb-02 10:00N 70°41' E 019°47'2 3.3
2018-Feb-02 09:30N 70°40' E 019°43'2 3.4
2018-Feb-02 08:59N 70°41' E 019°48'3 0.5
2018-Feb-02 03:51N 70°43' E 019°45'1 3.9
2018-Feb-02 03:29N 70°42' E 019°48'2 4.0
2018-Feb-02 03:00N 70°42' E 019°54'1 0.2
2018-Feb-01 19:14N 70°41' E 019°58'1 2.4
2018-Feb-01 19:00N 70°41' E 019°56'2 1.0
2018-Feb-01 16:48N 70°41' E 020°03'1 3.3
2018-Feb-01 16:30N 70°41' E 020°00'2 3.7
2018-Feb-01 16:00N 70°41' E 019°55'2 3.7
2018-Feb-01 15:30N 70°42' E 019°49'2 3.4
2018-Feb-01 14:59N 70°41' E 019°44'5 3.5
2018-Feb-01 13:30N 70°41' E 019°60'2 3.8
2018-Feb-01 13:00N 70°41' E 020°06'1 0.7
2018-Feb-01 11:00N 70°41' E 020°02'2 3.8
2018-Feb-01 10:29N 70°41' E 019°56'2 3.9
2018-Feb-01 10:00N 70°41' E 019°50'2 3.1
2018-Feb-01 09:30N 70°40' E 019°48'2 3.7
2018-Feb-01 09:00N 70°39' E 019°53'2 4.0
2018-Feb-01 08:30N 70°40' E 019°59'13 2.9
2018-Feb-01 04:07N 70°51' E 020°17'0 3.6
2018-Feb-01 04:00N 70°51' E 020°17'2 1.7
2018-Feb-01 02:48N 70°49' E 020°16'1 4.1
2018-Feb-01 02:30N 70°49' E 020°14'2 3.9
2018-Feb-01 02:00N 70°47' E 020°11'2 3.5
2018-Feb-01 01:30N 70°46' E 020°15'2 3.9
2018-Feb-01 01:00N 70°46' E 020°21'2 3.9
2018-Feb-01 00:30N 70°47' E 020°26'2 4.6
2018-Feb-01 00:01N 70°48' E 020°31'1 1.2
2018-Jan-31 23:00N 70°47' E 020°32'1 1.9
2018-Jan-31 22:30N 70°47' E 020°35'5 3.6
2018-Jan-31 21:00N 70°48' E 020°50'2 3.9
2018-Jan-31 20:31N 70°48' E 020°56'2 3.8
2018-Jan-31 20:00N 70°48' E 021°02'2 3.9
2018-Jan-31 19:29N 70°48' E 021°08'2 3.9
2018-Jan-31 19:00N 70°48' E 021°14'2 3.9
2018-Jan-31 18:30N 70°49' E 021°19'2 4.4
2018-Jan-31 17:59N 70°51' E 021°24'1 1.7
2018-Jan-31 17:30N 70°50' E 021°23'1 2.3
2018-Jan-31 17:00N 70°49' E 021°21'2 3.6
2018-Jan-31 16:30N 70°49' E 021°15'2 3.7
2018-Jan-31 16:00N 70°49' E 021°10'2 3.7
2018-Jan-31 15:30N 70°49' E 021°04'22 0.6
2018-Jan-30 02:20N 71°04' E 021°54'1 4.2
2018-Jan-30 02:00N 71°04' E 021°59'3 6.6
2018-Jan-30 01:30N 71°05' E 022°09'1 1.8
2018-Jan-30 01:00N 71°05' E 022°09'1 0.7
2018-Jan-29 23:06N 71°07' E 022°09'0 3.8
2018-Jan-29 23:00N 71°06' E 022°09'2 3.6
2018-Jan-29 22:28N 71°04' E 022°10'2 3.9
2018-Jan-29 22:00N 71°03' E 022°12'1 2.8
2018-Jan-29 21:30N 71°03' E 022°08'2 3.8
2018-Jan-29 21:00N 71°05' E 022°08'2 3.9
2018-Jan-29 20:30N 71°07' E 022°09'  

Dump ship's entire track history